Time;durP1;ratioP1;P1;durP2;ratioP2;P2;SDS_P1;SDS_P2;PMS_P1;PMS_P2;Temp;Humidity;BMP_temperature;BMP_pressure;BME280_temperature;BME280_humidity;BME280_pressure;Samples;Min_cycle;Max_cycle;Signal;HPM_P1;HPM_P2
2023/11/24 00:00:41;;;;;;;29.77;3.88;;;9.80;99.90;;;;;;5048932;28;20016;-60
2023/11/24 00:03:07;;;;;;;30.33;4.10;;;9.80;99.90;;;;;;5047958;28;20021;-59
2023/11/24 00:05:32;;;;;;;26.25;2.75;;;9.70;99.90;;;;;;5054511;28;20115;-58
2023/11/24 00:07:58;;;;;;;35.47;2.80;;;9.70;99.90;;;;;;5045299;28;20080;-57
2023/11/24 00:10:28;;;;;;;29.17;3.35;;;9.70;99.90;;;;;;5044522;28;20033;-57
2023/11/24 00:12:54;;;;;;;23.40;3.08;;;9.70;99.90;;;;;;5047241;28;20021;-58
2023/11/24 00:15:19;;;;;;;37.50;4.15;;;9.60;99.90;;;;;;5048612;28;20020;-58
2023/11/24 00:17:45;;;;;;;22.77;3.03;;;9.60;99.90;;;;;;5051442;28;20017;-58
2023/11/24 00:20:13;;;;;;;30.08;4.03;;;9.60;99.90;;;;;;5049700;28;20536;-56
2023/11/24 00:22:39;;;;;;;23.05;3.95;;;9.60;99.90;;;;;;5049469;28;20422;-59
2023/11/24 00:25:06;;;;;;;31.00;4.07;;;9.60;99.90;;;;;;5050035;28;20033;-58
2023/11/24 00:27:32;;;;;;;27.70;4.50;;;9.50;99.90;;;;;;5046787;28;20036;-59
2023/11/24 00:29:58;;;;;;;35.70;4.75;;;9.50;99.90;;;;;;5052715;28;20100;-58
2023/11/24 00:32:24;;;;;;;30.85;3.92;;;9.50;99.90;;;;;;5050839;28;20041;-58
2023/11/24 00:34:49;;;;;;;31.75;4.60;;;9.50;99.90;;;;;;5051752;28;20136;-54
2023/11/24 00:37:15;;;;;;;39.15;4.80;;;9.40;99.90;;;;;;5050524;28;20009;-60
2023/11/24 00:39:41;;;;;;;34.53;4.60;;;9.40;99.90;;;;;;5048136;28;20070;-57
2023/11/24 00:42:07;;;;;;;23.35;3.45;;;9.30;99.90;;;;;;5049421;28;20108;-59
2023/11/24 00:44:33;;;;;;;27.85;4.70;;;9.30;99.90;;;;;;5050181;28;20020;-59
2023/11/24 00:46:59;;;;;;;39.72;3.90;;;9.30;99.90;;;;;;5050914;28;20024;-59
2023/11/24 00:49:24;;;;;;;31.92;3.70;;;9.20;99.90;;;;;;5050590;28;20043;-59
2023/11/24 00:51:51;;;;;;;42.78;4.88;;;9.20;99.90;;;;;;5052133;28;20044;-58
2023/11/24 00:54:17;;;;;;;46.22;4.80;;;9.20;99.90;;;;;;5047071;28;20442;-59
2023/11/24 00:56:42;;;;;;;49.88;4.90;;;9.30;99.90;;;;;;5048055;28;20021;-60
2023/11/24 00:59:08;;;;;;;41.92;4.03;;;9.20;99.90;;;;;;5048241;28;20020;-58
2023/11/24 01:01:33;;;;;;;36.70;4.30;;;9.20;99.90;;;;;;5050528;28;20020;-59
2023/11/24 01:03:59;;;;;;;28.63;4.57;;;9.30;99.90;;;;;;5048936;28;20501;-58
2023/11/24 01:06:26;;;;;;;37.72;3.95;;;9.30;99.90;;;;;;5045750;28;20044;-60
2023/11/24 01:08:52;;;;;;;37.03;4.15;;;9.30;99.90;;;;;;5047552;28;20027;-56
2023/11/24 01:11:18;;;;;;;33.88;4.68;;;9.30;99.90;;;;;;5046841;28;20104;-58
2023/11/24 01:13:43;;;;;;;40.70;4.38;;;9.40;99.90;;;;;;5044647;28;20021;-57
2023/11/24 01:16:09;;;;;;;43.17;4.53;;;9.40;99.90;;;;;;5050826;28;20040;-56
2023/11/24 01:18:37;;;;;;;43.25;4.63;;;9.40;99.90;;;;;;5044272;28;20031;-60
2023/11/24 01:21:03;;;;;;;38.70;4.22;;;9.40;99.90;;;;;;5046824;28;20017;-58
2023/11/24 01:23:28;;;;;;;33.20;4.90;;;9.40;99.90;;;;;;5050721;28;20083;-57
2023/11/24 01:25:54;;;;;;;41.38;4.65;;;9.40;99.90;;;;;;5050770;28;20037;-58
2023/11/24 01:28:22;;;;;;;26.33;3.17;;;9.40;99.90;;;;;;5052841;28;20112;-60
2023/11/24 01:30:48;;;;;;;32.03;3.85;;;9.40;99.90;;;;;;5050783;28;20009;-58
2023/11/24 01:33:13;;;;;;;28.95;4.35;;;9.40;99.90;;;;;;5050639;28;20044;-59
2023/11/24 01:35:39;;;;;;;35.05;4.93;;;9.40;99.90;;;;;;5052474;28;20032;-58
2023/11/24 01:38:05;;;;;;;37.25;3.90;;;9.40;99.90;;;;;;5048823;28;20352;-58
2023/11/24 01:40:31;;;;;;;46.70;5.72;;;9.40;99.90;;;;;;5046921;28;20028;-58
2023/11/24 01:42:56;;;;;;;24.88;3.55;;;9.40;99.90;;;;;;5049981;28;20040;-57
2023/11/24 01:45:22;;;;;;;31.42;3.92;;;9.40;99.90;;;;;;5049946;28;20029;-59
2023/11/24 01:47:47;;;;;;;35.53;3.53;;;9.40;99.90;;;;;;5049597;28;20013;-59
2023/11/24 01:50:15;;;;;;;27.65;3.60;;;9.40;99.90;;;;;;5048275;28;20029;-58
2023/11/24 01:52:42;;;;;;;29.42;3.97;;;9.40;99.90;;;;;;5044067;28;20063;-57
2023/11/24 01:55:12;;;;;;;37.15;3.92;;;9.40;99.90;;;;;;5045227;28;20033;-57
2023/11/24 01:57:40;;;;;;;34.75;4.60;;;9.40;99.90;;;;;;5042011;28;20017;-58
2023/11/24 02:00:09;;;;;;;29.67;4.22;;;9.40;99.90;;;;;;5045697;28;20025;-56
2023/11/24 02:02:35;;;;;;;27.98;3.47;;;9.40;99.90;;;;;;5049732;28;20091;-57
2023/11/24 02:05:01;;;;;;;32.67;3.47;;;9.40;99.90;;;;;;5050916;28;20020;-59
2023/11/24 02:07:29;;;;;;;37.33;4.07;;;9.40;99.90;;;;;;5047626;28;20025;-56
2023/11/24 02:09:55;;;;;;;32.00;4.53;;;9.40;99.90;;;;;;5048042;28;20032;-58
2023/11/24 02:12:22;;;;;;;33.30;4.78;;;9.40;99.90;;;;;;5047553;28;20055;-59
2023/11/24 02:14:48;;;;;;;32.38;4.03;;;9.40;99.90;;;;;;5049092;28;20020;-59
2023/11/24 02:17:15;;;;;;;27.33;3.50;;;9.30;99.90;;;;;;5049489;28;20029;-57
2023/11/24 02:19:41;;;;;;;27.38;3.40;;;9.10;99.90;;;;;;5046301;28;20049;-57
2023/11/24 02:22:07;;;;;;;31.08;3.22;;;9.00;99.90;;;;;;5045578;28;20084;-59
2023/11/24 02:24:33;;;;;;;32.83;3.40;;;8.80;99.90;;;;;;5046460;28;20440;-58
2023/11/24 02:26:59;;;;;;;22.83;3.35;;;8.70;99.90;;;;;;5046034;28;20383;-60
2023/11/24 02:29:25;;;;;;;27.25;3.17;;;8.60;99.90;;;;;;5044116;28;20064;-59
2023/11/24 02:31:50;;;;;;;31.00;3.45;;;8.50;99.90;;;;;;5049127;28;20056;-60
2023/11/24 02:34:16;;;;;;;32.03;2.90;;;8.40;99.90;;;;;;5048000;28;20402;-64
2023/11/24 02:36:42;;;;;;;34.13;3.28;;;8.30;99.90;;;;;;5048816;28;20554;-59
2023/11/24 02:39:08;;;;;;;26.00;3.00;;;8.20;99.90;;;;;;5048495;28;20383;-63
2023/11/24 02:41:34;;;;;;;31.75;4.07;;;8.20;99.90;;;;;;5048286;28;20017;-60
2023/11/24 02:44:00;;;;;;;20.00;2.95;;;8.20;99.90;;;;;;5040826;28;20029;-62
2023/11/24 02:46:26;;;;;;;23.17;3.33;;;8.10;99.90;;;;;;5048613;28;20029;-59
2023/11/24 02:48:52;;;;;;;28.27;3.58;;;8.10;99.90;;;;;;5050293;28;20395;-62
2023/11/24 02:51:18;;;;;;;69.90;7.88;;;8.00;99.90;;;;;;5046619;28;20082;-62
2023/11/24 02:53:44;;;;;;;29.48;3.25;;;8.00;99.90;;;;;;5048409;28;20029;-61
2023/11/24 02:56:11;;;;;;;35.80;4.45;;;8.00;99.90;;;;;;5049078;28;20104;-62
2023/11/24 02:58:37;;;;;;;23.00;3.20;;;8.10;99.90;;;;;;5047802;28;20395;-62
2023/11/24 03:01:05;;;;;;;43.25;3.97;;;8.00;99.90;;;;;;5049788;28;20106;-61
2023/11/24 03:03:30;;;;;;;24.80;3.90;;;8.10;99.90;;;;;;5047556;28;20024;-63
2023/11/24 03:05:56;;;;;;;37.35;4.90;;;8.00;99.90;;;;;;5048693;28;20013;-61
2023/11/24 03:08:23;;;;;;;35.33;4.80;;;8.00;99.90;;;;;;5043437;28;20433;-60
2023/11/24 03:10:49;;;;;;;26.90;3.67;;;8.00;99.90;;;;;;5045383;28;20024;-61
2023/11/24 03:13:14;;;;;;;22.70;3.03;;;7.90;99.90;;;;;;5049593;28;20032;-62
2023/11/24 03:15:40;;;;;;;29.58;3.70;;;7.90;99.90;;;;;;5046820;28;20123;-59
2023/11/24 03:18:07;;;;;;;40.30;5.80;;;7.90;99.90;;;;;;5048167;28;20025;-62
2023/11/24 03:20:33;;;;;;;25.63;3.80;;;7.90;99.90;;;;;;5045350;28;20071;-60
2023/11/24 03:22:58;;;;;;;27.55;3.35;;;7.90;99.90;;;;;;5047643;28;20045;-61
2023/11/24 03:25:24;;;;;;;24.38;3.45;;;7.90;99.90;;;;;;5048551;28;20087;-59
2023/11/24 03:27:49;;;;;;;36.33;5.40;;;7.80;99.90;;;;;;5049101;28;20029;-60
2023/11/24 03:30:15;;;;;;;30.80;2.97;;;7.80;99.90;;;;;;5040282;28;20036;-63
2023/11/24 03:32:41;;;;;;;24.60;2.72;;;7.80;99.90;;;;;;5048462;28;20032;-60
2023/11/24 03:35:07;;;;;;;26.65;3.30;;;7.80;99.90;;;;;;5050001;28;20478;-62
2023/11/24 03:37:33;;;;;;;27.77;2.67;;;7.70;99.90;;;;;;5045655;28;20064;-61
2023/11/24 03:39:58;;;;;;;28.65;2.97;;;7.70;99.90;;;;;;5048830;28;20424;-62
2023/11/24 03:42:24;;;;;;;21.50;3.40;;;7.70;99.90;;;;;;5045961;28;20033;-60
2023/11/24 03:44:49;;;;;;;25.23;2.92;;;7.80;99.90;;;;;;5049114;28;20421;-60
2023/11/24 03:47:16;;;;;;;26.20;3.20;;;7.70;99.90;;;;;;5048791;28;20029;-60
2023/11/24 03:49:41;;;;;;;25.42;3.72;;;7.70;99.90;;;;;;5047197;28;20032;-59
2023/11/24 03:52:07;;;;;;;19.88;2.65;;;7.70;99.90;;;;;;5044995;28;20036;-60
2023/11/24 03:54:32;;;;;;;24.75;3.38;;;7.70;99.90;;;;;;5046124;28;20021;-59
2023/11/24 03:56:59;;;;;;;29.92;3.03;;;7.80;99.90;;;;;;5046469;28;20059;-61
2023/11/24 03:59:25;;;;;;;28.70;3.03;;;7.80;99.90;;;;;;5051122;28;20036;-61
2023/11/24 04:01:50;;;;;;;29.27;3.30;;;7.80;99.90;;;;;;5049859;28;20025;-60
2023/11/24 04:04:16;;;;;;;33.67;4.85;;;7.80;99.90;;;;;;5048030;28;20029;-62
2023/11/24 04:06:42;;;;;;;33.15;3.55;;;7.80;99.90;;;;;;5050354;28;20036;-61
2023/11/24 04:09:09;;;;;;;22.17;3.83;;;7.80;99.90;;;;;;5047466;28;20029;-61
2023/11/24 04:11:35;;;;;;;26.88;2.83;;;7.80;99.90;;;;;;5046336;28;20040;-61
2023/11/24 04:14:00;;;;;;;27.02;2.15;;;7.80;99.90;;;;;;5050152;28;20025;-59
2023/11/24 04:16:26;;;;;;;30.88;4.18;;;7.80;99.90;;;;;;5047417;28;20028;-60
2023/11/24 04:18:51;;;;;;;28.58;2.42;;;7.80;99.90;;;;;;5050886;28;20075;-60
2023/11/24 04:21:17;;;;;;;31.48;3.22;;;7.90;99.90;;;;;;5048423;28;20017;-60
2023/11/24 04:23:44;;;;;;;19.58;2.38;;;7.90;99.90;;;;;;5044571;28;20021;-60
2023/11/24 04:26:09;;;;;;;25.08;3.03;;;7.90;99.90;;;;;;5053007;28;20017;-61
2023/11/24 04:28:35;;;;;;;21.52;2.88;;;8.00;99.90;;;;;;5048407;28;20108;-60
2023/11/24 04:31:00;;;;;;;19.17;3.13;;;8.00;99.90;;;;;;5050198;28;20139;-61
2023/11/24 04:33:26;;;;;;;24.92;3.55;;;8.00;99.90;;;;;;5051910;28;20025;-60
2023/11/24 04:35:55;;;;;;;19.25;1.95;;;8.00;99.90;;;;;;5048355;28;20044;-59
2023/11/24 04:38:20;;;;;;;14.30;1.75;;;8.00;99.90;;;;;;5052880;28;20470;-59
2023/11/24 04:40:46;;;;;;;20.40;1.67;;;8.00;99.90;;;;;;5052859;28;20096;-59
2023/11/24 04:43:12;;;;;;;21.08;2.80;;;8.00;99.90;;;;;;5055146;28;20027;-59
2023/11/24 04:45:39;;;;;;;15.27;3.22;;;8.00;99.90;;;;;;5050924;28;20052;-60
2023/11/24 04:48:07;;;;;;;28.20;3.25;;;8.00;99.90;;;;;;5045067;28;20087;-60
2023/11/24 04:50:32;;;;;;;16.00;2.72;;;8.10;99.90;;;;;;5046368;28;20059;-58
2023/11/24 04:52:58;;;;;;;18.85;2.22;;;8.10;99.90;;;;;;5044091;28;20025;-60
2023/11/24 04:55:23;;;;;;;18.08;1.83;;;8.00;99.90;;;;;;5051602;28;20048;-59
2023/11/24 04:57:50;;;;;;;16.55;2.47;;;8.00;99.90;;;;;;5052311;28;20078;-61
2023/11/24 05:00:19;;;;;;;19.65;2.47;;;8.00;99.90;;;;;;5050914;28;20087;-60
2023/11/24 05:02:45;;;;;;;21.17;2.55;;;8.00;99.90;;;;;;5051828;28;20024;-63
2023/11/24 05:05:10;;;;;;;17.92;2.50;;;8.00;99.90;;;;;;5051848;28;20021;-62
2023/11/24 05:07:36;;;;;;;23.30;2.92;;;8.00;99.90;;;;;;5046477;28;20028;-60
2023/11/24 05:10:05;;;;;;;23.10;3.92;;;8.00;99.90;;;;;;5048244;28;20031;-61
2023/11/24 05:12:31;;;;;;;22.88;2.97;;;8.00;99.90;;;;;;5051579;28;20025;-59
2023/11/24 05:14:57;;;;;;;16.23;2.25;;;7.90;99.90;;;;;;5058380;28;20024;-59
2023/11/24 05:17:22;;;;;;;32.10;2.83;;;7.90;99.90;;;;;;5042641;28;20167;-57
2023/11/24 05:19:48;;;;;;;17.35;1.98;;;7.90;99.90;;;;;;5050565;28;20634;-59
2023/11/24 05:22:13;;;;;;;14.07;1.77;;;7.80;99.90;;;;;;5046642;28;20468;-58
2023/11/24 05:24:39;;;;;;;15.00;1.50;;;7.80;99.90;;;;;;5055922;28;20025;-60
2023/11/24 05:27:06;;;;;;;15.00;1.75;;;7.80;99.90;;;;;;5052354;28;20029;-59
2023/11/24 05:29:32;;;;;;;16.25;1.75;;;7.80;99.90;;;;;;5055390;28;20028;-60
2023/11/24 05:31:58;;;;;;;20.35;1.90;;;7.70;99.90;;;;;;5046410;28;20549;-60
2023/11/24 05:34:25;;;;;;;13.40;1.90;;;7.80;99.90;;;;;;5041016;28;20182;-61
2023/11/24 05:36:51;;;;;;;10.98;1.58;;;7.70;99.90;;;;;;5048983;28;20479;-61
2023/11/24 05:39:16;;;;;;;15.10;1.88;;;7.70;99.90;;;;;;5043407;28;20036;-59
2023/11/24 05:41:44;;;;;;;18.30;1.92;;;7.80;99.90;;;;;;5039858;28;20025;-61
2023/11/24 05:44:10;;;;;;;14.65;2.00;;;7.80;99.90;;;;;;5040860;28;20017;-61
2023/11/24 05:46:38;;;;;;;12.75;2.00;;;7.80;99.90;;;;;;5044648;28;20022;-59
2023/11/24 05:49:04;;;;;;;11.07;2.03;;;7.80;99.90;;;;;;5037747;28;20100;-58
2023/11/24 05:51:29;;;;;;;16.20;1.83;;;7.80;99.90;;;;;;5036806;28;20120;-58
2023/11/24 05:53:55;;;;;;;30.23;2.95;;;7.80;99.90;;;;;;5047126;28;20021;-62
2023/11/24 05:56:21;;;;;;;13.98;2.50;;;7.80;99.90;;;;;;5040719;28;20029;-60
2023/11/24 05:58:46;;;;;;;19.00;2.85;;;7.80;99.90;;;;;;5039224;28;20025;-60
2023/11/24 06:01:12;;;;;;;11.68;1.85;;;7.80;99.90;;;;;;5037735;28;20475;-60
2023/11/24 06:03:37;;;;;;;18.40;2.38;;;7.80;99.90;;;;;;5043107;28;20029;-59
2023/11/24 06:06:03;;;;;;;12.35;3.35;;;7.80;99.90;;;;;;5035128;28;20222;-61
2023/11/24 06:08:28;;;;;;;13.20;1.50;;;7.80;99.90;;;;;;5042434;28;20037;-60
2023/11/24 06:10:54;;;;;;;14.52;2.25;;;7.80;99.90;;;;;;5042916;28;20033;-57
2023/11/24 06:13:19;;;;;;;16.35;2.15;;;7.80;99.90;;;;;;5040512;28;20021;-56
2023/11/24 06:15:45;;;;;;;18.77;2.47;;;7.80;99.90;;;;;;5040728;28;20036;-60
2023/11/24 06:18:11;;;;;;;25.40;2.28;;;7.80;99.90;;;;;;5041654;28;20029;-60
2023/11/24 06:20:36;;;;;;;19.85;1.88;;;7.80;99.90;;;;;;5044315;28;20040;-60
2023/11/24 06:23:02;;;;;;;17.83;2.00;;;7.80;99.90;;;;;;5048176;28;20009;-62
2023/11/24 06:25:29;;;;;;;17.88;2.67;;;7.80;99.90;;;;;;5047530;28;20394;-59
2023/11/24 06:27:54;;;;;;;20.65;2.53;;;7.90;99.90;;;;;;5044377;28;20116;-60
2023/11/24 06:30:20;;;;;;;22.98;2.70;;;7.90;99.90;;;;;;5040647;28;20120;-61
2023/11/24 06:32:46;;;;;;;24.73;3.28;;;7.90;99.90;;;;;;5046434;28;20044;-59
2023/11/24 06:35:11;;;;;;;20.13;2.90;;;7.90;99.90;;;;;;5043112;28;20079;-62
2023/11/24 06:37:37;;;;;;;18.38;2.15;;;7.90;99.90;;;;;;5042780;28;20493;-60
2023/11/24 06:40:03;;;;;;;15.35;1.92;;;8.00;99.90;;;;;;5043998;28;20021;-62
2023/11/24 06:42:30;;;;;;;19.08;2.00;;;8.00;99.90;;;;;;5042251;28;20112;-62
2023/11/24 06:44:56;;;;;;;19.95;1.73;;;8.00;99.90;;;;;;5036658;28;20059;-58
2023/11/24 06:47:23;;;;;;;16.75;2.10;;;7.90;99.90;;;;;;5046988;28;20083;-60
2023/11/24 06:49:49;;;;;;;21.42;2.03;;;7.80;99.90;;;;;;5048919;28;20472;-60
2023/11/24 06:52:15;;;;;;;23.00;2.63;;;7.80;99.90;;;;;;5050063;28;20107;-60
2023/11/24 06:54:40;;;;;;;16.15;1.85;;;7.70;99.90;;;;;;5051233;28;20428;-55
2023/11/24 06:57:06;;;;;;;13.15;1.90;;;7.70;99.90;;;;;;5053160;28;20047;-60
2023/11/24 06:59:31;;;;;;;16.75;2.40;;;7.70;99.90;;;;;;5055670;28;20471;-61
2023/11/24 07:01:57;;;;;;;14.40;1.85;;;7.60;99.90;;;;;;5055376;28;20033;-61
2023/11/24 07:04:23;;;;;;;16.00;2.17;;;7.60;99.90;;;;;;5053519;28;20025;-57
2023/11/24 07:06:49;;;;;;;20.77;2.25;;;7.60;99.90;;;;;;5052156;28;20416;-60
2023/11/24 07:09:14;;;;;;;25.25;3.83;;;7.70;99.90;;;;;;5054620;28;20025;-62
2023/11/24 07:11:41;;;;;;;13.15;2.33;;;7.70;99.90;;;;;;5048871;28;20359;-61
2023/11/24 07:14:07;;;;;;;18.02;2.10;;;7.70;99.90;;;;;;5051318;28;20020;-60
2023/11/24 07:16:33;;;;;;;16.27;2.28;;;7.70;99.90;;;;;;5046859;28;20021;-57
2023/11/24 07:18:59;;;;;;;16.00;1.90;;;7.70;99.90;;;;;;5053616;28;20043;-61
2023/11/24 07:21:25;;;;;;;18.98;1.98;;;7.70;99.90;;;;;;5049912;28;20052;-62
2023/11/24 07:23:51;;;;;;;11.32;1.73;;;7.70;99.90;;;;;;5049483;28;20027;-60
2023/11/24 07:26:17;;;;;;;23.48;4.10;;;7.70;99.90;;;;;;5043155;28;20021;-61
2023/11/24 07:28:45;;;;;;;12.57;2.08;;;7.80;99.90;;;;;;5048087;28;20036;-63
2023/11/24 07:31:15;;;;;;;20.77;2.40;;;7.80;99.90;;;;;;5049502;28;20019;-64
2023/11/24 07:33:49;;;;;;;10.98;1.92;;;7.80;99.90;;;;;;5054480;28;20042;-65
2023/11/24 07:36:20;;;;;;;11.35;2.35;;;7.80;99.90;;;;;;5041206;28;20106;-65
2023/11/24 07:38:47;;;;;;;13.35;2.22;;;7.80;99.90;;;;;;5048651;28;20040;-65
2023/11/24 07:41:13;;;;;;;21.90;2.72;;;7.80;99.90;;;;;;5045883;28;20027;-65
2023/11/24 07:43:38;;;;;;;14.35;3.22;;;7.80;99.90;;;;;;5053425;28;20518;-63
2023/11/24 07:46:07;;;;;;;17.40;2.40;;;7.80;99.90;;;;;;5054828;28;20017;-65
2023/11/24 07:48:33;;;;;;;20.30;2.85;;;7.80;99.90;;;;;;5052395;28;20027;-63
2023/11/24 07:51:00;;;;;;;23.63;3.35;;;7.80;99.90;;;;;;5056667;28;20025;-65
2023/11/24 07:53:25;;;;;;;19.27;2.58;;;7.80;99.90;;;;;;5051199;28;20107;-64
2023/11/24 07:55:51;;;;;;;16.13;2.72;;;7.80;99.90;;;;;;5044770;28;20184;-65
2023/11/24 07:58:16;;;;;;;16.38;3.50;;;7.80;99.90;;;;;;5048709;28;20051;-64
2023/11/24 08:00:42;;;;;;;23.60;3.35;;;7.80;99.90;;;;;;5055254;28;20024;-64
2023/11/24 08:03:08;;;;;;;21.13;2.58;;;7.70;99.90;;;;;;5050027;28;20417;-64
2023/11/24 08:05:33;;;;;;;24.48;3.00;;;7.70;99.90;;;;;;5048728;28;20028;-65
2023/11/24 08:08:00;;;;;;;13.98;2.65;;;7.60;99.90;;;;;;5053557;28;20035;-63
2023/11/24 08:10:27;;;;;;;13.35;2.30;;;7.50;99.90;;;;;;5052556;28;20487;-64
2023/11/24 08:12:53;;;;;;;7.60;1.60;;;7.30;99.90;;;;;;5049649;28;20355;-64
2023/11/24 08:15:19;;;;;;;8.27;1.40;;;6.90;99.90;;;;;;5053287;28;20031;-65
2023/11/24 08:17:44;;;;;;;9.50;1.17;;;6.70;99.90;;;;;;5054529;28;20023;-63
2023/11/24 08:20:10;;;;;;;4.65;0.88;;;6.50;99.90;;;;;;5048251;28;20421;-66
2023/11/24 08:22:36;;;;;;;8.90;0.90;;;6.30;99.90;;;;;;5051625;28;20021;-65
2023/11/24 08:25:03;;;;;;;2.42;0.63;;;6.10;99.90;;;;;;5058907;28;20044;-65
2023/11/24 08:27:29;;;;;;;2.17;0.75;;;6.00;99.90;;;;;;5045477;28;20033;-66
2023/11/24 08:29:54;;;;;;;6.53;1.17;;;6.00;99.90;;;;;;5046480;28;20161;-65
2023/11/24 08:32:20;;;;;;;4.80;0.55;;;5.90;99.90;;;;;;5049456;28;20021;-64
2023/11/24 08:34:45;;;;;;;4.10;0.70;;;5.90;99.90;;;;;;5056659;28;20082;-63
2023/11/24 08:37:11;;;;;;;2.88;0.70;;;5.90;99.90;;;;;;5049832;28;20446;-65
2023/11/24 08:39:38;;;;;;;6.28;1.00;;;5.90;99.90;;;;;;5044736;28;20066;-64
2023/11/24 08:42:04;;;;;;;5.90;1.02;;;5.90;99.90;;;;;;5041918;28;20017;-66
2023/11/24 08:44:30;;;;;;;7.35;0.90;;;5.90;99.90;;;;;;5040908;28;20032;-65
2023/11/24 08:46:56;;;;;;;5.28;1.23;;;5.90;99.90;;;;;;5042073;28;20021;-66
2023/11/24 08:49:22;;;;;;;9.63;1.17;;;5.90;99.90;;;;;;5044318;28;20475;-66
2023/11/24 08:51:47;;;;;;;11.00;1.42;;;6.00;99.90;;;;;;5046386;28;20085;-66
2023/11/24 08:54:13;;;;;;;14.57;2.25;;;6.10;99.90;;;;;;5039856;28;20034;-65
2023/11/24 08:56:39;;;;;;;7.28;2.33;;;6.10;99.90;;;;;;5049165;28;20021;-66
2023/11/24 08:59:09;;;;;;;15.93;1.67;;;6.20;99.90;;;;;;5044584;28;20025;-64
2023/11/24 09:01:36;;;;;;;9.35;1.55;;;6.30;99.90;;;;;;5041710;28;20021;-65
2023/11/24 09:04:02;;;;;;;12.32;1.77;;;6.40;99.90;;;;;;5041281;28;20037;-66
2023/11/24 09:06:28;;;;;;;8.90;1.90;;;6.40;99.90;;;;;;5042008;28;20037;-66
2023/11/24 09:08:56;;;;;;;10.73;2.42;;;6.50;99.90;;;;;;5041695;28;20040;-66
2023/11/24 09:11:22;;;;;;;24.90;3.78;;;6.60;99.90;;;;;;5040900;28;20017;-64
2023/11/24 09:13:47;;;;;;;19.25;2.63;;;6.70;99.90;;;;;;5039907;28;20382;-65
2023/11/24 09:16:13;;;;;;;16.02;2.97;;;6.80;99.90;;;;;;5039478;28;20033;-59
2023/11/24 09:18:41;;;;;;;14.27;3.05;;;6.90;99.90;;;;;;5039613;28;20020;-59
2023/11/24 09:21:09;;;;;;;15.95;3.38;;;7.00;99.90;;;;;;5040839;28;20036;-62
2023/11/24 09:23:35;;;;;;;28.52;3.50;;;7.00;99.90;;;;;;5043186;28;20777;-63
2023/11/24 09:26:02;;;;;;;14.88;2.38;;;7.10;99.90;;;;;;5044300;28;20104;-62
2023/11/24 09:28:28;;;;;;;20.88;2.50;;;7.10;99.90;;;;;;5049901;28;20570;-62
2023/11/24 09:30:55;;;;;;;15.57;2.15;;;7.10;99.90;;;;;;5047127;28;20434;-63
2023/11/24 09:33:21;;;;;;;15.30;2.22;;;7.10;99.90;;;;;;5049510;28;20044;-62
2023/11/24 09:35:47;;;;;;;17.33;2.92;;;7.10;99.90;;;;;;5042991;28;20394;-62
2023/11/24 09:38:13;;;;;;;15.27;1.85;;;7.10;99.90;;;;;;5047284;28;20025;-61
2023/11/24 09:40:38;;;;;;;10.45;1.58;;;7.10;99.90;;;;;;5047846;28;20023;-62
2023/11/24 09:43:04;;;;;;;18.92;2.67;;;7.10;99.90;;;;;;5049688;28;20160;-63
2023/11/24 09:45:30;;;;;;;12.40;3.58;;;7.10;99.90;;;;;;5053900;28;20029;-62
2023/11/24 09:47:56;;;;;;;11.65;1.75;;;7.20;99.90;;;;;;5046447;28;20106;-60
2023/11/24 09:50:26;;;;;;;10.25;1.73;;;7.20;99.90;;;;;;5041956;28;20024;-60
2023/11/24 09:52:56;;;;;;;12.30;1.45;;;7.20;99.90;;;;;;5039669;28;20032;-63
2023/11/24 09:55:23;;;;;;;19.73;1.90;;;7.20;99.90;;;;;;5040956;28;20025;-61
2023/11/24 09:57:52;;;;;;;10.45;1.85;;;7.20;99.90;;;;;;5052356;28;20032;-61
2023/11/24 10:00:19;;;;;;;17.08;1.98;;;7.20;99.90;;;;;;5049900;28;20026;-62
2023/11/24 10:02:46;;;;;;;11.55;1.92;;;7.30;99.90;;;;;;5041706;28;20499;-61
2023/11/24 10:05:17;;;;;;;7.72;1.83;;;7.30;99.90;;;;;;5042569;28;20107;-61
2023/11/24 10:07:47;;;;;;;17.48;2.05;;;7.30;99.90;;;;;;5033892;28;20051;-61
2023/11/24 10:10:25;;;;;;;17.73;1.92;;;7.40;99.90;;;;;;5039150;28;20527;-60
2023/11/24 10:12:58;;;;;;;16.35;1.75;;;7.40;99.90;;;;;;5039074;28;20036;-60
2023/11/24 10:15:24;;;;;;;6.82;1.60;;;7.40;99.90;;;;;;5036214;28;20036;-59
2023/11/24 10:17:50;;;;;;;15.38;3.70;;;7.40;99.90;;;;;;5040610;28;20067;-60
2023/11/24 10:20:18;;;;;;;24.55;1.80;;;7.40;99.90;;;;;;5042788;28;20037;-58
2023/11/24 10:22:50;;;;;;;7.95;1.92;;;7.40;99.90;;;;;;5036981;28;20028;-59
2023/11/24 10:25:20;;;;;;;13.00;1.77;;;7.30;99.90;;;;;;5039872;28;20426;-61
2023/11/24 10:27:46;;;;;;;10.02;1.58;;;7.30;99.90;;;;;;5037072;28;20576;-60
2023/11/24 10:30:12;;;;;;;7.78;1.55;;;7.30;99.90;;;;;;5040312;28;20021;-61
2023/11/24 10:32:45;;;;;;;10.18;1.30;;;7.30;99.90;;;;;;5037564;28;20036;-61
2023/11/24 10:35:12;;;;;;;9.40;1.73;;;7.30;99.90;;;;;;5038394;28;20044;-61
2023/11/24 10:37:40;;;;;;;13.25;1.88;;;7.30;99.90;;;;;;5037208;28;20028;-59
2023/11/24 10:40:10;;;;;;;10.70;2.58;;;7.30;99.90;;;;;;5038537;28;20434;-61
2023/11/24 10:42:37;;;;;;;8.95;1.40;;;7.20;99.90;;;;;;5041115;28;20025;-61
2023/11/24 10:45:09;;;;;;;11.30;1.63;;;7.20;99.90;;;;;;5035236;28;20017;-60
2023/11/24 10:47:43;;;;;;;11.73;1.75;;;7.20;99.90;;;;;;5036519;28;20693;-57
2023/11/24 10:50:16;;;;;;;11.18;1.63;;;7.20;99.90;;;;;;5038413;28;20797;-60
2023/11/24 10:53:06;;;;;;;13.15;1.73;;;7.20;99.90;;;;;;5036404;28;20030;-60
2023/11/24 10:55:34;;;;;;;9.10;1.52;;;7.20;99.90;;;;;;5037961;28;20045;-60
2023/11/24 10:58:01;;;;;;;10.75;1.88;;;7.10;99.90;;;;;;5036256;28;20143;-59
2023/11/24 11:00:30;;;;;;;13.48;1.88;;;7.10;99.90;;;;;;5040635;28;20342;-60
2023/11/24 11:02:56;;;;;;;9.65;1.88;;;7.00;99.90;;;;;;5037676;28;20030;-60
2023/11/24 11:05:47;;;;;;;8.63;1.35;;;7.00;99.90;;;;;;5038579;28;20025;-60
2023/11/24 11:08:34;;;;;;;10.73;1.08;;;6.90;99.90;;;;;;5043226;28;20032;-62
2023/11/24 11:11:25;;;;;;;4.63;1.20;;;6.70;99.90;;;;;;5043478;28;20033;-61
2023/11/24 11:13:51;;;;;;;7.75;1.13;;;6.80;99.90;;;;;;5040759;28;20052;-59
2023/11/24 11:16:19;;;;;;;8.05;1.38;;;6.90;99.90;;;;;;5049750;28;20021;-62
2023/11/24 11:18:45;;;;;;;8.50;1.08;;;7.00;99.90;;;;;;5054847;28;20026;-60
2023/11/24 11:21:15;;;;;;;8.07;1.13;;;7.10;99.90;;;;;;5046332;28;20086;-58
2023/11/24 11:23:41;;;;;;;8.57;1.17;;;7.10;99.90;;;;;;5049234;28;20068;-61
2023/11/24 11:26:08;;;;;;;7.38;1.80;;;7.20;99.90;;;;;;5046315;28;20032;-62
2023/11/24 11:28:39;;;;;;;4.65;1.00;;;7.10;99.90;;;;;;5039457;28;20087;-57
2023/11/24 11:31:33;;;;;;;5.35;1.08;;;7.10;99.90;;;;;;5041973;28;20025;-61
2023/11/24 11:34:16;;;;;;;6.55;1.20;;;7.20;99.90;;;;;;5038715;28;20040;-61
2023/11/24 11:37:14;;;;;;;8.32;1.40;;;7.30;99.90;;;;;;5043189;28;20025;-58
2023/11/24 11:39:47;;;;;;;2.05;0.82;;;7.40;99.90;;;;;;5041884;28;20044;-61
2023/11/24 11:42:14;;;;;;;9.75;2.28;;;7.40;99.90;;;;;;5047636;28;20040;-60
2023/11/24 11:44:46;;;;;;;4.45;1.23;;;7.50;99.90;;;;;;5040519;28;20116;-60
2023/11/24 11:47:24;;;;;;;2.90;1.23;;;7.40;99.90;;;;;;5042263;28;20024;-61
2023/11/24 11:49:51;;;;;;;2.50;0.98;;;7.50;99.90;;;;;;5042986;28;20036;-62
2023/11/24 11:52:19;;;;;;;3.08;0.98;;;7.60;99.90;;;;;;5045641;28;20113;-63
2023/11/24 11:54:47;;;;;;;7.30;1.05;;;7.50;99.90;;;;;;5046602;28;20392;-62
2023/11/24 11:57:13;;;;;;;6.13;0.88;;;7.40;99.90;;;;;;5049944;28;20032;-64
2023/11/24 11:59:39;;;;;;;10.93;0.90;;;7.40;99.90;;;;;;5044298;28;20031;-62
2023/11/24 12:02:07;;;;;;;7.85;1.73;;;7.40;99.90;;;;;;5039076;28;20078;-63
2023/11/24 12:04:34;;;;;;;4.85;0.90;;;7.30;99.90;;;;;;5044447;28;20029;-64
2023/11/24 12:07:01;;;;;;;7.00;1.48;;;7.30;99.90;;;;;;5041741;28;20029;-64
2023/11/24 12:09:28;;;;;;;4.93;1.30;;;7.30;99.90;;;;;;5046646;28;20028;-64
2023/11/24 12:11:54;;;;;;;4.45;1.13;;;7.20;99.90;;;;;;5046957;28;20035;-64
2023/11/24 12:14:20;;;;;;;11.45;1.50;;;7.20;99.90;;;;;;5045641;28;20493;-62
2023/11/24 12:16:45;;;;;;;5.57;0.70;;;7.20;99.90;;;;;;5051266;28;20082;-62
2023/11/24 12:19:11;;;;;;;3.42;0.80;;;7.00;99.90;;;;;;5057467;28;20443;-62
2023/11/24 12:21:39;;;;;;;6.03;1.33;;;6.80;99.90;;;;;;5049891;28;20512;-63
2023/11/24 12:24:05;;;;;;;6.85;1.23;;;6.60;99.90;;;;;;5043697;28;20138;-63
2023/11/24 12:26:33;;;;;;;3.63;0.50;;;6.40;99.90;;;;;;5057947;28;20491;-60
2023/11/24 12:28:59;;;;;;;2.72;0.50;;;6.30;99.90;;;;;;5050772;28;20032;-62
2023/11/24 12:31:28;;;;;;;4.00;0.47;;;6.30;99.90;;;;;;5046663;28;20029;-61
2023/11/24 12:33:55;;;;;;;2.65;0.50;;;6.20;99.90;;;;;;5044172;28;20025;-61
2023/11/24 12:36:24;;;;;;;3.42;0.80;;;6.10;99.90;;;;;;5041780;28;20033;-62
2023/11/24 12:38:50;;;;;;;1.95;0.40;;;6.10;99.90;;;;;;5044868;28;20087;-64
2023/11/24 12:41:16;;;;;;;1.33;0.35;;;6.00;99.90;;;;;;5039239;28;20484;-63
2023/11/24 12:43:42;;;;;;;1.27;0.40;;;6.30;99.90;;;;;;5048471;28;20059;-63
2023/11/24 12:46:21;;;;;;;2.78;0.50;;;6.50;99.90;;;;;;5049940;28;20064;-62